Time;durP1;ratioP1;P1;durP2;ratioP2;P2;SDS_P1;SDS_P2;PMS_P1;PMS_P2;Temp;Humidity;BMP_temperature;BMP_pressure;BME280_temperature;BME280_humidity;BME280_pressure;Samples;Min_cycle;Max_cycle;Signal;HPM_P1;HPM_P2
2022/11/20 00:00:48;;;;;;;13.75;6.38;;;;;;;;;;5011804;28;20112;-85
2022/11/20 00:03:14;;;;;;;13.48;6.22;;;;;;;;;;5010407;28;20049;-86
2022/11/20 00:05:40;;;;;;;12.75;6.40;;;;;;;;;;5012596;28;20034;-86
2022/11/20 00:08:05;;;;;;;13.52;6.43;;;;;;;;;;5028167;28;20071;-86
2022/11/20 00:10:34;;;;;;;13.88;6.80;;;;;;;;;;5012217;28;20850;-84
2022/11/20 00:12:59;;;;;;;11.27;6.18;;;;;;;;;;5015935;28;20115;-85
2022/11/20 00:15:24;;;;;;;12.77;6.88;;;;;;;;;;5031506;28;20583;-86
2022/11/20 00:17:50;;;;;;;9.95;5.72;;;;;;;;;;5034459;28;20487;-85
2022/11/20 00:20:16;;;;;;;12.63;6.60;;;;;;;;;;5014038;28;20040;-86
2022/11/20 00:22:41;;;;;;;13.07;7.35;;;;;;;;;;5029549;28;20048;-85
2022/11/20 00:25:07;;;;;;;12.52;6.43;;;;;;;;;;5031307;28;20045;-85
2022/11/20 00:27:32;;;;;;;13.70;6.65;;;;;;;;;;5024810;28;20121;-86
2022/11/20 00:29:57;;;;;;;12.13;6.43;;;;;;;;;;5008156;28;20033;-86
2022/11/20 00:32:23;;;;;;;10.80;5.30;;;;;;;;;;5007561;28;20052;-85
2022/11/20 00:34:48;;;;;;;11.75;5.95;;;;;;;;;;5031639;28;20072;-86
2022/11/20 00:37:14;;;;;;;12.43;6.65;;;;;;;;;;5011896;28;20042;-85
2022/11/20 00:39:39;;;;;;;12.82;6.38;;;;;;;;;;5035271;28;20025;-84
2022/11/20 00:42:07;;;;;;;13.80;6.68;;;;;;;;;;5030678;28;20060;-85
2022/11/20 00:44:33;;;;;;;13.65;6.47;;;;;;;;;;5006799;28;20048;-85
2022/11/20 00:46:58;;;;;;;13.18;6.45;;;;;;;;;;5011783;28;20040;-85
2022/11/20 00:49:29;;;;;;;12.35;6.30;;;;;;;;;;5009669;28;20465;-85
2022/11/20 00:51:54;;;;;;;13.48;7.05;;;;;;;;;;5025148;28;20081;-85
2022/11/20 00:54:20;;;;;;;13.82;6.65;;;;;;;;;;5028767;28;20110;-85
2022/11/20 00:56:45;;;;;;;11.93;6.30;;;;;;;;;;5013405;28;20099;-85
2022/11/20 00:59:11;;;;;;;13.00;6.97;;;;;;;;;;5010753;28;20041;-84
2022/11/20 01:01:37;;;;;;;14.65;6.90;;;;;;;;;;5018939;28;20048;-82
2022/11/20 01:04:02;;;;;;;15.05;7.57;;;;;;;;;;5018563;28;20042;-84
2022/11/20 01:06:30;;;;;;;14.52;6.55;;;;;;;;;;4995029;28;20345;-85
2022/11/20 01:08:58;;;;;;;13.43;6.78;;;;;;;;;;4993983;28;20488;-85
2022/11/20 01:11:27;;;;;;;;;;;;;;;;;;5019086;28;20039;-85
2022/11/20 01:13:54;;;;;;;11.15;5.85;;;;;;;;;;5008695;28;20391;-84
2022/11/20 01:16:21;;;;;;;14.02;6.82;;;;;;;;;;5024930;28;20373;-85
2022/11/20 01:18:49;;;;;;;13.90;7.07;;;;;;;;;;5031856;28;20129;-85
2022/11/20 01:21:19;;;;;;;14.20;6.88;;;;;;;;;;5013223;28;20037;-84
2022/11/20 01:23:46;;;;;;;15.27;6.95;;;;;;;;;;5043835;28;20041;-85
2022/11/20 01:26:14;;;;;;;13.57;6.80;;;;;;;;;;5025773;28;20037;-85
2022/11/20 01:28:42;;;;;;;12.98;6.90;;;;;;;;;;5025977;28;20041;-84
2022/11/20 01:31:17;;;;;;;16.48;7.07;;;;;;;;;;5027012;28;20041;-85
2022/11/20 01:33:43;;;;;;;13.05;6.28;;;;;;;;;;5016021;28;20135;-85
2022/11/20 01:36:10;;;;;;;16.65;7.47;;;;;;;;;;5021986;28;20121;-84
2022/11/20 01:38:36;;;;;;;14.80;6.97;;;;;;;;;;5025241;28;20079;-85
2022/11/20 01:41:02;;;;;;;14.07;7.43;;;;;;;;;;5010967;28;20775;-85
2022/11/20 01:43:28;;;;;;;13.38;6.38;;;;;;;;;;5013172;28;20029;-86
2022/11/20 01:45:53;;;;;;;13.23;6.75;;;;;;;;;;5003580;28;20121;-85
2022/11/20 01:48:20;;;;;;;12.70;6.35;;;;;;;;;;5028535;28;20164;-85
2022/11/20 01:50:45;;;;;;;14.82;7.38;;;;;;;;;;5028029;28;20124;-85
2022/11/20 01:53:15;;;;;;;12.07;6.40;;;;;;;;;;5026292;28;20038;-86
2022/11/20 01:55:47;;;;;;;13.98;7.35;;;;;;;;;;5031914;28;20488;-85
2022/11/20 01:58:13;;;;;;;13.48;7.07;;;;;;;;;;5025959;28;21050;-84
2022/11/20 02:00:43;;;;;;;11.63;6.43;;;;;;;;;;5013526;28;20037;-84
2022/11/20 02:03:14;;;;;;;15.30;6.95;;;;;;;;;;5008011;28;20385;-84
2022/11/20 02:06:04;;;;;;;14.30;7.00;;;;;;;;;;5026094;28;20033;-84
2022/11/20 02:08:30;;;;;;;14.38;6.93;;;;;;;;;;5022124;28;20029;-84
2022/11/20 02:10:55;;;;;;;11.82;6.07;;;;;;;;;;5012921;28;20034;-83
2022/11/20 02:16:23;;;;;;;13.75;7.32;;;;;;;;;;5006744;28;20060;-85
2022/11/20 02:18:50;;;;;;;13.93;6.72;;;;;;;;;;4995371;28;20052;-84
2022/11/20 02:21:28;;;;;;;14.93;7.20;;;;;;;;;;5010377;28;20088;-85
2022/11/20 02:24:12;;;;;;;12.75;6.78;;;;;;;;;;5027110;28;20087;-85
2022/11/20 02:26:44;;;;;;;15.10;7.18;;;;;;;;;;5010823;28;20060;-85
2022/11/20 02:29:09;;;;;;;14.15;6.60;;;;;;;;;;5024045;28;20037;-84
2022/11/20 02:31:38;;;;;;;13.25;6.55;;;;;;;;;;5010789;28;20543;-85
2022/11/20 02:34:03;;;;;;;13.73;6.70;;;;;;;;;;5029622;28;20025;-85
2022/11/20 02:36:32;;;;;;;15.50;6.53;;;;;;;;;;5025004;28;20117;-85
2022/11/20 02:38:57;;;;;;;12.73;7.03;;;;;;;;;;5042161;28;20431;-85
2022/11/20 02:41:31;;;;;;;13.23;7.07;;;;;;;;;;5007409;28;20041;-85
2022/11/20 02:43:56;;;;;;;14.43;7.00;;;;;;;;;;5009846;28;20117;-85
2022/11/20 02:46:21;;;;;;;15.15;7.53;;;;;;;;;;5012096;28;20116;-85
2022/11/20 02:48:47;;;;;;;15.40;7.10;;;;;;;;;;5009233;28;20030;-85
2022/11/20 02:51:12;;;;;;;12.15;7.07;;;;;;;;;;5023880;28;20120;-85
2022/11/20 02:53:38;;;;;;;15.05;7.18;;;;;;;;;;4996656;28;20723;-85
2022/11/20 02:56:06;;;;;;;13.95;6.93;;;;;;;;;;5009892;28;20034;-85
2022/11/20 02:58:32;;;;;;;15.85;7.43;;;;;;;;;;5012229;28;20127;-84
2022/11/20 03:00:57;;;;;;;14.43;7.45;;;;;;;;;;4995978;28;20493;-85
2022/11/20 03:03:22;;;;;;;13.68;6.70;;;;;;;;;;4992016;28;20039;-85
2022/11/20 03:05:48;;;;;;;14.07;7.15;;;;;;;;;;5013629;28;20519;-84
2022/11/20 03:08:13;;;;;;;13.13;6.80;;;;;;;;;;5027669;28;20029;-84
2022/11/20 03:10:39;;;;;;;16.75;7.47;;;;;;;;;;5026388;28;20068;-84
2022/11/20 03:13:05;;;;;;;15.48;7.20;;;;;;;;;;5029647;28;20099;-85
2022/11/20 03:18:44;;;;;;;13.27;6.68;;;;;;;;;;5027042;28;20513;-85
2022/11/20 03:21:11;;;;;;;13.75;7.10;;;;;;;;;;5032456;28;20120;-85
2022/11/20 03:23:38;;;;;;;13.40;7.15;;;;;;;;;;5014204;28;20068;-84
2022/11/20 03:26:16;;;;;;;12.57;7.25;;;;;;;;;;5018940;28;20454;-85
2022/11/20 03:28:46;;;;;;;14.68;7.53;;;;;;;;;;5015425;28;20107;-85
2022/11/20 03:31:14;;;;;;;12.50;7.18;;;;;;;;;;5027534;28;20465;-85
2022/11/20 03:33:40;;;;;;;14.05;7.72;;;;;;;;;;5029013;28;20127;-85
2022/11/20 03:36:08;;;;;;;14.43;7.45;;;;;;;;;;5014749;28;20121;-85
2022/11/20 03:38:33;;;;;;;;;;;;;;;;;;5020868;28;20029;-85
2022/11/20 03:41:04;;;;;;;13.88;6.57;;;;;;;;;;5014312;28;20787;-84
2022/11/20 03:43:30;;;;;;;14.20;7.30;;;;;;;;;;5029070;28;20048;-84
2022/11/20 03:45:56;;;;;;;14.73;7.47;;;;;;;;;;5031102;28;20041;-84
2022/11/20 03:48:21;;;;;;;13.68;7.15;;;;;;;;;;5033056;28;20041;-84
2022/11/20 03:50:47;;;;;;;15.85;7.35;;;;;;;;;;5030124;28;20030;-83
2022/11/20 03:53:13;;;;;;;16.58;7.32;;;;;;;;;;5030759;28;20500;-83
2022/11/20 03:55:39;;;;;;;13.98;7.13;;;;;;;;;;5030012;28;20488;-86
2022/11/20 03:58:04;;;;;;;12.77;6.93;;;;;;;;;;5017234;28;20032;-85
2022/11/20 04:00:29;;;;;;;14.68;7.05;;;;;;;;;;5031768;28;20083;-82
2022/11/20 04:02:58;;;;;;;14.23;7.22;;;;;;;;;;5032898;28;20457;-82
2022/11/20 04:05:24;;;;;;;13.50;7.10;;;;;;;;;;5006941;28;20118;-83
2022/11/20 04:07:49;;;;;;;14.68;7.45;;;;;;;;;;5029794;28;20469;-83
2022/11/20 04:10:15;;;;;;;16.25;7.00;;;;;;;;;;5030219;28;20052;-83
2022/11/20 04:12:40;;;;;;;16.10;7.63;;;;;;;;;;5016794;28;20113;-83
2022/11/20 04:15:06;;;;;;;14.27;7.63;;;;;;;;;;5015046;28;20026;-83
2022/11/20 04:17:31;;;;;;;14.02;7.00;;;;;;;;;;5026179;28;20120;-83
2022/11/20 04:19:57;;;;;;;14.75;7.10;;;;;;;;;;5028281;28;20069;-82
2022/11/20 04:22:22;;;;;;;13.50;7.13;;;;;;;;;;5041681;28;20093;-82
2022/11/20 04:24:48;;;;;;;13.20;7.03;;;;;;;;;;5030393;28;20037;-82
2022/11/20 04:27:13;;;;;;;15.77;7.55;;;;;;;;;;5013275;28;20083;-82
2022/11/20 04:29:38;;;;;;;13.55;7.13;;;;;;;;;;5029067;28;20033;-83
2022/11/20 04:32:04;;;;;;;13.70;7.60;;;;;;;;;;5043921;28;20086;-82
2022/11/20 04:34:32;;;;;;;14.80;7.25;;;;;;;;;;5045142;28;20029;-82
2022/11/20 04:37:00;;;;;;;15.30;7.93;;;;;;;;;;5029157;28;20048;-83
2022/11/20 04:39:25;;;;;;;14.65;7.35;;;;;;;;;;5045278;28;20531;-83
2022/11/20 04:42:28;;;;;;;14.75;7.28;;;;;;;;;;5008435;28;20063;-82
2022/11/20 04:44:39;;;;;;;13.10;7.53;;;;;;;;;;5025566;28;20400;-82
2022/11/20 04:47:04;;;;;;;16.48;8.18;;;;;;;;;;5026800;28;20029;-84
2022/11/20 04:49:31;;;;;;;14.95;7.50;;;;;;;;;;5025406;28;20148;-82
2022/11/20 04:51:57;;;;;;;13.38;6.97;;;;;;;;;;5011864;28;20147;-83
2022/11/20 04:54:22;;;;;;;14.52;7.32;;;;;;;;;;5014651;28;20045;-83
2022/11/20 04:56:48;;;;;;;14.57;7.10;;;;;;;;;;5010494;28;20267;-83
2022/11/20 04:59:13;;;;;;;14.32;7.35;;;;;;;;;;4999827;28;20037;-83
2022/11/20 05:01:39;;;;;;;14.85;7.15;;;;;;;;;;5009431;28;20033;-82
2022/11/20 05:04:05;;;;;;;14.60;7.60;;;;;;;;;;5010814;28;20040;-83
2022/11/20 05:06:33;;;;;;;15.68;7.55;;;;;;;;;;5026956;28;20493;-83
2022/11/20 05:08:59;;;;;;;17.13;8.77;;;;;;;;;;5027731;28;20037;-82
2022/11/20 05:11:25;;;;;;;16.23;8.10;;;;;;;;;;5028291;28;20493;-83
2022/11/20 05:13:51;;;;;;;16.75;8.52;;;;;;;;;;5013118;28;20029;-83
2022/11/20 05:16:21;;;;;;;15.02;7.72;;;;;;;;;;5027666;28;20484;-83
2022/11/20 05:18:47;;;;;;;13.68;7.68;;;;;;;;;;5015312;28;20037;-83
2022/11/20 05:21:13;;;;;;;16.55;7.70;;;;;;;;;;5013112;28;20383;-84
2022/11/20 05:23:39;;;;;;;12.27;7.05;;;;;;;;;;5027989;28;20052;-83
2022/11/20 05:26:05;;;;;;;13.77;7.72;;;;;;;;;;4998092;28;20785;-83
2022/11/20 05:28:32;;;;;;;15.20;7.70;;;;;;;;;;5007482;28;20033;-83
2022/11/20 05:31:11;;;;;;;15.00;6.95;;;;;;;;;;5005734;28;20208;-82
2022/11/20 05:33:39;;;;;;;15.32;7.60;;;;;;;;;;5016688;28;20030;-82
2022/11/20 05:36:05;;;;;;;14.48;7.35;;;;;;;;;;5011433;28;20025;-83
2022/11/20 05:38:31;;;;;;;16.90;8.57;;;;;;;;;;5006356;28;20084;-82
2022/11/20 05:41:08;;;;;;;15.43;8.07;;;;;;;;;;4999623;28;20038;-83
2022/11/20 05:43:38;;;;;;;15.10;7.97;;;;;;;;;;5003536;28;20094;-82
2022/11/20 05:46:05;;;;;;;16.08;8.07;;;;;;;;;;5010260;28;20030;-83
2022/11/20 05:48:31;;;;;;;18.48;9.20;;;;;;;;;;5007400;28;20034;-83
2022/11/20 05:51:00;;;;;;;15.82;7.85;;;;;;;;;;5007302;28;20029;-83
2022/11/20 05:53:26;;;;;;;14.95;8.32;;;;;;;;;;5027916;28;20033;-83
2022/11/20 05:56:02;;;;;;;14.95;7.95;;;;;;;;;;5011677;28;20033;-83
2022/11/20 05:58:28;;;;;;;17.02;8.15;;;;;;;;;;5005796;28;20114;-83
2022/11/20 06:00:54;;;;;;;14.73;7.45;;;;;;;;;;5026494;28;20034;-82
2022/11/20 06:03:19;;;;;;;15.93;8.40;;;;;;;;;;5030251;28;20390;-83
2022/11/20 06:05:45;;;;;;;16.38;8.40;;;;;;;;;;5024643;28;20908;-83
2022/11/20 06:08:10;;;;;;;17.02;8.23;;;;;;;;;;5028308;28;20033;-83
2022/11/20 06:10:35;;;;;;;16.75;8.55;;;;;;;;;;5027080;28;20045;-83
2022/11/20 06:13:01;;;;;;;15.85;8.10;;;;;;;;;;5024999;28;20095;-83
2022/11/20 06:15:26;;;;;;;18.25;8.00;;;;;;;;;;5010356;28;20036;-83
2022/11/20 06:17:53;;;;;;;19.15;8.70;;;;;;;;;;5013709;28;20081;-84
2022/11/20 06:20:19;;;;;;;14.75;8.25;;;;;;;;;;5024997;28;20060;-84
2022/11/20 06:22:44;;;;;;;14.45;7.95;;;;;;;;;;4994912;28;20453;-84
2022/11/20 06:25:10;;;;;;;15.23;8.27;;;;;;;;;;4994103;28;20119;-83
2022/11/20 06:27:35;;;;;;;14.73;7.80;;;;;;;;;;5009837;28;20038;-83
2022/11/20 06:30:00;;;;;;;16.40;8.45;;;;;;;;;;5011110;28;20099;-84
2022/11/20 06:32:26;;;;;;;16.42;8.60;;;;;;;;;;5008320;28;20045;-83
2022/11/20 06:34:51;;;;;;;16.55;8.50;;;;;;;;;;4996321;28;20084;-83
2022/11/20 06:37:17;;;;;;;15.43;7.95;;;;;;;;;;5010785;28;20064;-83
2022/11/20 06:39:42;;;;;;;16.60;7.97;;;;;;;;;;4994463;28;20044;-83
2022/11/20 06:42:07;;;;;;;13.88;7.40;;;;;;;;;;4991433;28;20607;-83
2022/11/20 06:44:33;;;;;;;22.05;9.23;;;;;;;;;;4991734;28;20124;-83
2022/11/20 06:46:58;;;;;;;15.60;8.05;;;;;;;;;;5005182;28;20037;-83
2022/11/20 06:49:25;;;;;;;17.92;7.80;;;;;;;;;;5010404;28;20033;-83
2022/11/20 06:51:50;;;;;;;17.27;9.00;;;;;;;;;;5010480;28;20067;-83
2022/11/20 06:54:15;;;;;;;16.27;8.35;;;;;;;;;;5006782;28;20099;-83
2022/11/20 06:56:41;;;;;;;17.23;8.40;;;;;;;;;;5007429;28;20060;-83
2022/11/20 06:59:07;;;;;;;19.10;9.02;;;;;;;;;;5012270;28;20107;-83
2022/11/20 07:01:32;;;;;;;16.92;8.45;;;;;;;;;;5010645;28;20048;-82
2022/11/20 07:03:58;;;;;;;15.70;8.35;;;;;;;;;;5027252;28;20037;-83
2022/11/20 07:06:23;;;;;;;17.45;8.73;;;;;;;;;;5027553;28;20136;-83
2022/11/20 07:08:51;;;;;;;17.05;8.57;;;;;;;;;;5026246;28;20045;-84
2022/11/20 07:11:16;;;;;;;18.20;8.32;;;;;;;;;;5024011;28;20063;-83
2022/11/20 07:13:42;;;;;;;14.88;7.75;;;;;;;;;;5012170;28;20077;-83
2022/11/20 07:16:08;;;;;;;15.93;7.88;;;;;;;;;;5006082;28;20444;-83
2022/11/20 07:18:34;;;;;;;14.98;8.20;;;;;;;;;;5030951;28;20037;-83
2022/11/20 07:21:08;;;;;;;18.33;8.82;;;;;;;;;;5014540;28;20403;-83
2022/11/20 07:23:37;;;;;;;16.40;8.55;;;;;;;;;;4980082;28;20563;-82
2022/11/20 07:26:06;;;;;;;16.30;8.07;;;;;;;;;;5005710;28;20125;-84
2022/11/20 07:28:32;;;;;;;16.20;8.23;;;;;;;;;;4999822;28;20579;-84
2022/11/20 07:30:57;;;;;;;16.50;8.02;;;;;;;;;;5007227;28;20022;-84
2022/11/20 07:33:23;;;;;;;17.42;8.35;;;;;;;;;;4971678;28;20041;-84
2022/11/20 07:35:48;;;;;;;15.95;8.20;;;;;;;;;;4980357;28;20129;-84
2022/11/20 07:38:13;;;;;;;15.65;7.72;;;;;;;;;;5004143;28;20034;-87
2022/11/20 07:40:39;;;;;;;15.93;8.07;;;;;;;;;;5006533;28;20026;-89
2022/11/20 07:43:06;;;;;;;13.85;7.30;;;;;;;;;;5040676;28;20495;-86
2022/11/20 07:45:34;;;;;;;14.32;7.00;;;;;;;;;;5042881;28;20064;-88
2022/11/20 07:48:00;;;;;;;17.52;7.68;;;;;;;;;;5023628;28;20111;-87
2022/11/20 07:50:25;;;;;;;15.25;8.15;;;;;;;;;;5012853;28;20033;-87
2022/11/20 07:52:52;;;;;;;16.27;7.82;;;;;;;;;;5005205;28;20037;-88
2022/11/20 07:55:17;;;;;;;16.60;8.07;;;;;;;;;;5009322;28;20042;-87
2022/11/20 07:57:43;;;;;;;15.65;7.78;;;;;;;;;;5028139;28;20481;-88
2022/11/20 08:00:10;;;;;;;17.83;8.57;;;;;;;;;;5026461;28;20982;-86
2022/11/20 08:02:40;;;;;;;14.57;8.05;;;;;;;;;;5048993;28;20057;-86
2022/11/20 08:05:06;;;;;;;15.55;7.95;;;;;;;;;;5027451;28;20048;-86
2022/11/20 08:07:42;;;;;;;19.30;8.73;;;;;;;;;;5028809;28;20432;-87
2022/11/20 08:10:09;;;;;;;14.32;8.10;;;;;;;;;;4993338;28;20051;-88
2022/11/20 08:15:19;;;;;;;15.70;8.00;;;;;;;;;;5009402;28;20087;-88
2022/11/20 08:17:45;;;;;;;18.35;9.13;;;;;;;;;;5007511;28;20481;-89
2022/11/20 08:20:10;;;;;;;16.67;8.75;;;;;;;;;;4989984;28;20117;-88
2022/11/20 08:22:36;;;;;;;15.93;8.40;;;;;;;;;;5016290;28;20619;-87
2022/11/20 08:25:02;;;;;;;16.77;8.50;;;;;;;;;;5020027;28;20034;-87
2022/11/20 08:27:27;;;;;;;15.80;8.25;;;;;;;;;;5030834;28;20045;-86
2022/11/20 08:29:53;;;;;;;17.08;8.80;;;;;;;;;;5019044;28;20104;-86
2022/11/20 08:32:18;;;;;;;16.52;8.27;;;;;;;;;;5025232;28;20041;-86
2022/11/20 08:34:49;;;;;;;16.45;8.50;;;;;;;;;;5019280;28;20036;-85
2022/11/20 08:37:24;;;;;;;15.50;7.43;;;;;;;;;;5001636;28;20475;-85
2022/11/20 08:39:49;;;;;;;18.45;8.18;;;;;;;;;;5012170;28;20076;-86
2022/11/20 08:42:15;;;;;;;15.15;8.00;;;;;;;;;;5005354;28;20135;-86
2022/11/20 08:44:43;;;;;;;16.85;8.70;;;;;;;;;;5028805;28;20125;-85
2022/11/20 08:47:08;;;;;;;16.80;8.27;;;;;;;;;;5023442;28;20041;-86
2022/11/20 08:49:34;;;;;;;15.05;7.82;;;;;;;;;;5028303;28;20095;-86
2022/11/20 08:51:59;;;;;;;13.13;7.13;;;;;;;;;;5026989;28;20477;-87
2022/11/20 08:54:25;;;;;;;17.88;8.05;;;;;;;;;;5012829;28;20485;-86
2022/11/20 08:56:50;;;;;;;14.13;7.75;;;;;;;;;;5007144;28;20037;-85
2022/11/20 08:59:16;;;;;;;17.42;8.93;;;;;;;;;;5024403;28;20048;-85
2022/11/20 09:01:41;;;;;;;14.38;7.88;;;;;;;;;;5013004;28;20037;-84
2022/11/20 09:04:07;;;;;;;15.90;8.73;;;;;;;;;;5012563;28;20092;-86
2022/11/20 09:06:32;;;;;;;15.55;8.23;;;;;;;;;;5025273;28;20068;-85
2022/11/20 09:08:58;;;;;;;14.73;7.63;;;;;;;;;;5025657;28;20106;-85
2022/11/20 09:11:23;;;;;;;17.25;8.10;;;;;;;;;;5027802;28;20032;-86
2022/11/20 09:13:49;;;;;;;15.45;7.95;;;;;;;;;;5030601;28;20156;-84
2022/11/20 09:16:14;;;;;;;14.50;7.43;;;;;;;;;;5025938;28;20063;-81
2022/11/20 09:18:39;;;;;;;16.00;8.57;;;;;;;;;;5022913;28;20041;-81
2022/11/20 09:21:10;;;;;;;15.50;8.48;;;;;;;;;;5009183;28;20041;-81
2022/11/20 09:23:36;;;;;;;16.45;9.10;;;;;;;;;;5008981;28;20038;-80
2022/11/20 09:26:03;;;;;;;15.60;7.85;;;;;;;;;;5025539;28;20033;-81
2022/11/20 09:28:29;;;;;;;15.45;7.72;;;;;;;;;;5025693;28;20102;-82
2022/11/20 09:30:55;;;;;;;16.38;8.43;;;;;;;;;;5010769;28;20407;-81
2022/11/20 09:33:20;;;;;;;17.90;8.38;;;;;;;;;;5010744;28;20037;-81
2022/11/20 09:35:46;;;;;;;14.68;8.35;;;;;;;;;;5023692;28;20047;-81
2022/11/20 09:38:11;;;;;;;17.15;8.40;;;;;;;;;;5013456;28;20041;-82
2022/11/20 09:40:43;;;;;;;16.65;8.65;;;;;;;;;;4995338;28;20061;-82
2022/11/20 09:43:30;;;;;;;14.90;7.70;;;;;;;;;;5008235;28;20188;-82
2022/11/20 09:45:58;;;;;;;15.13;8.27;;;;;;;;;;5006335;28;20037;-84
2022/11/20 09:49:03;;;;;;;15.15;8.25;;;;;;;;;;5006076;28;20057;-83
2022/11/20 09:51:37;;;;;;;15.07;8.10;;;;;;;;;;5016524;28;20052;-82
2022/11/20 09:54:11;;;;;;;14.45;8.02;;;;;;;;;;5004045;28;20033;-82
2022/11/20 09:56:40;;;;;;;16.60;8.85;;;;;;;;;;5025597;28;20183;-82
2022/11/20 09:59:07;;;;;;;16.35;8.07;;;;;;;;;;5009785;28;20084;-83
2022/11/20 10:01:35;;;;;;;15.38;8.23;;;;;;;;;;5041633;28;20045;-83
2022/11/20 10:04:16;;;;;;;15.00;7.95;;;;;;;;;;5012956;28;20043;-83
2022/11/20 10:06:53;;;;;;;14.77;8.07;;;;;;;;;;5010246;28;20462;-84
2022/11/20 10:09:22;;;;;;;15.80;8.68;;;;;;;;;;5016080;28;20160;-83
2022/11/20 10:12:13;;;;;;;16.88;8.30;;;;;;;;;;5007392;28;20040;-84
2022/11/20 10:14:45;;;;;;;15.80;8.10;;;;;;;;;;5002155;28;20480;-83
2022/11/20 10:17:13;;;;;;;16.30;7.95;;;;;;;;;;5021137;28;20033;-82
2022/11/20 10:20:07;;;;;;;16.58;8.88;;;;;;;;;;5040556;28;20033;-83
2022/11/20 10:23:00;;;;;;;15.75;7.68;;;;;;;;;;5011056;28;20389;-82
2022/11/20 10:25:38;;;;;;;16.35;8.50;;;;;;;;;;5010942;28;20840;-83
2022/11/20 10:28:21;;;;;;;14.38;7.63;;;;;;;;;;5002572;28;20389;-83
2022/11/20 10:30:55;;;;;;;18.67;9.35;;;;;;;;;;5006126;28;20713;-84
2022/11/20 10:33:24;;;;;;;16.45;8.45;;;;;;;;;;5006092;28;20769;-83
2022/11/20 10:35:57;;;;;;;18.38;8.85;;;;;;;;;;4999522;28;20109;-83
2022/11/20 10:38:33;;;;;;;15.52;8.18;;;;;;;;;;5023261;28;20408;-82
2022/11/20 10:41:48;;;;;;;16.65;8.38;;;;;;;;;;5024973;28;20125;-83
2022/11/20 10:43:48;;;;;;;15.90;7.97;;;;;;;;;;5000844;28;20488;-83
2022/11/20 10:46:23;;;;;;;15.90;8.90;;;;;;;;;;5023749;28;20444;-82
2022/11/20 10:48:49;;;;;;;15.48;7.82;;;;;;;;;;5028364;28;20713;-82
2022/11/20 10:51:29;;;;;;;14.40;7.32;;;;;;;;;;5012065;28;20134;-82
2022/11/20 10:54:00;;;;;;;14.30;7.70;;;;;;;;;;5043025;28;20053;-83
2022/11/20 10:56:34;;;;;;;13.15;7.70;;;;;;;;;;5039119;28;20136;-83
2022/11/20 10:59:40;;;;;;;14.68;7.53;;;;;;;;;;5036970;28;20550;-83
2022/11/20 11:02:22;;;;;;;16.50;7.97;;;;;;;;;;5024167;28;20041;-83
2022/11/20 11:04:49;;;;;;;12.93;7.03;;;;;;;;;;5027352;28;20041;-83
2022/11/20 11:07:15;;;;;;;;;;;;;;;;;;5008612;28;20678;-83
2022/11/20 11:09:47;;;;;;;14.57;6.80;;;;;;;;;;5020237;28;20028;-82
2022/11/20 11:12:13;;;;;;;15.80;7.50;;;;;;;;;;5023837;28;20681;-82
2022/11/20 11:14:52;;;;;;;14.52;7.53;;;;;;;;;;5007128;28;20029;-82
2022/11/20 11:17:20;;;;;;;14.40;7.90;;;;;;;;;;4997672;28;20529;-83
2022/11/20 11:19:59;;;;;;;15.15;7.43;;;;;;;;;;5008506;28;20103;-82
2022/11/20 11:22:25;;;;;;;13.73;7.20;;;;;;;;;;5026875;28;20056;-82
2022/11/20 11:24:53;;;;;;;12.60;6.90;;;;;;;;;;5009830;28;20380;-82
2022/11/20 11:27:19;;;;;;;14.35;6.72;;;;;;;;;;4996626;28;20714;-82
2022/11/20 11:29:45;;;;;;;14.10;7.32;;;;;;;;;;5008388;28;20038;-83
2022/11/20 11:32:21;;;;;;;12.07;6.55;;;;;;;;;;5026453;28;20113;-83
2022/11/20 11:35:04;;;;;;;12.45;7.38;;;;;;;;;;5029399;28;20060;-83
2022/11/20 11:37:35;;;;;;;12.73;7.03;;;;;;;;;;5026586;28;20029;-84
2022/11/20 11:40:02;;;;;;;12.20;6.60;;;;;;;;;;5009545;28;20026;-83
2022/11/20 11:42:28;;;;;;;14.73;6.78;;;;;;;;;;5014102;28;20045;-83
2022/11/20 11:45:06;;;;;;;13.18;6.88;;;;;;;;;;5015904;28;20029;-83
2022/11/20 11:47:37;;;;;;;12.63;6.70;;;;;;;;;;4983650;28;20048;-83
2022/11/20 11:50:13;;;;;;;12.40;6.65;;;;;;;;;;5012969;28;20124;-83
2022/11/20 11:52:56;;;;;;;16.27;7.53;;;;;;;;;;5025450;28;20037;-83
2022/11/20 11:55:44;;;;;;;15.80;7.60;;;;;;;;;;5027136;28;20474;-84
2022/11/20 11:58:17;;;;;;;15.63;7.45;;;;;;;;;;5013049;28;20538;-83
2022/11/20 12:00:53;;;;;;;13.15;7.13;;;;;;;;;;5004062;28;20120;-93
2022/11/20 12:03:21;;;;;;;13.20;6.50;;;;;;;;;;5012256;28;20496;-90
2022/11/20 12:05:57;;;;;;;12.77;6.65;;;;;;;;;;5029982;28;20029;-92
2022/11/20 12:08:24;;;;;;;12.85;6.22;;;;;;;;;;4991908;28;20108;-88
2022/11/20 12:11:13;;;;;;;12.27;6.18;;;;;;;;;;5000728;28;20046;-91
2022/11/20 12:13:48;;;;;;;10.48;5.75;;;;;;;;;;5012456;28;20106;-89
2022/11/20 12:16:15;;;;;;;12.80;6.30;;;;;;;;;;5009349;28;20056;-88
2022/11/20 12:18:41;;;;;;;11.55;6.72;;;;;;;;;;4995482;28;20054;-90
2022/11/20 12:21:22;;;;;;;11.60;5.90;;;;;;;;;;5019400;28;20045;-91
2022/11/20 12:23:59;;;;;;;9.75;4.72;;;;;;;;;;4997872;28;20041;-90
2022/11/20 12:27:05;;;;;;;10.30;5.03;;;;;;;;;;5002046;28;20130;-88
2022/11/20 12:29:53;;;;;;;8.10;4.57;;;;;;;;;;4945199;28;20322;-93
2022/11/20 12:32:21;;;;;;;10.43;4.78;;;;;;;;;;5013252;28;20038;-90
2022/11/20 12:35:25;;;;;;;8.63;4.32;;;;;;;;;;5028982;28;20086;-90
2022/11/20 12:38:09;;;;;;;8.95;4.20;;;;;;;;;;5000617;28;20055;-86
2022/11/20 12:41:01;;;;;;;8.68;4.22;;;;;;;;;;5028165;28;20539;-90
2022/11/20 12:46:35;;;;;;;8.75;4.32;;;;;;;;;;5001215;28;20061;-91
2022/11/20 12:49:16;;;;;;;7.38;3.95;;;;;;;;;;4981902;28;20034;-91
2022/11/20 12:52:10;;;;;;;7.57;4.35;;;;;;;;;;4981536;28;20034;-89
2022/11/20 12:54:47;;;;;;;7.88;4.05;;;;;;;;;;4983642;28;20042;-90
2022/11/20 12:57:21;;;;;;;10.55;4.22;;;;;;;;;;4983876;28;20034;-88
2022/11/20 13:00:13;;;;;;;8.32;4.22;;;;;;;;;;4982979;28;20067;-90
2022/11/20 13:02:42;;;;;;;9.05;4.55;;;;;;;;;;4987182;28;20050;-86
2022/11/20 13:05:16;;;;;;;9.18;4.13;;;;;;;;;;4999022;28;20038;-88
2022/11/20 13:07:43;;;;;;;8.60;4.68;;;;;;;;;;4988115;28;20085;-83
2022/11/20 13:10:24;;;;;;;10.65;4.72;;;;;;;;;;4963129;28;20522;-88
2022/11/20 13:13:12;;;;;;;8.25;4.35;;;;;;;;;;4978424;28;20073;-88
2022/11/20 13:15:52;;;;;;;9.60;4.72;;;;;;;;;;4988924;28;20041;-87
2022/11/20 13:18:18;;;;;;;8.88;4.72;;;;;;;;;;4997509;28;20120;-86
2022/11/20 13:20:47;;;;;;;9.27;4.65;;;;;;;;;;5012429;28;20519;-87
2022/11/20 13:23:28;;;;;;;8.93;4.53;;;;;;;;;;5011208;28;20040;-88
2022/11/20 13:26:05;;;;;;;7.70;4.32;;;;;;;;;;5026081;28;20549;-88
2022/11/20 13:28:31;;;;;;;8.85;4.22;;;;;;;;;;5008078;28;20033;-88
2022/11/20 13:30:58;;;;;;;10.15;4.80;;;;;;;;;;4997833;28;20515;-88
2022/11/20 13:33:34;;;;;;;9.37;4.50;;;;;;;;;;5023391;28;20041;-87
2022/11/20 13:36:19;;;;;;;8.15;4.22;;;;;;;;;;5030483;28;20041;-88
2022/11/20 13:38:50;;;;;;;8.27;4.50;;;;;;;;;;5013543;28;20038;-88
2022/11/20 13:41:34;;;;;;;8.00;4.40;;;;;;;;;;5002168;28;20497;-87
2022/11/20 13:44:35;;;;;;;7.68;4.40;;;;;;;;;;4981766;28;20037;-89
2022/11/20 13:47:00;;;;;;;9.32;4.72;;;;;;;;;;5003156;28;20033;-87
2022/11/20 13:49:31;;;;;;;10.07;5.43;;;;;;;;;;5003468;28;20045;-90
2022/11/20 13:52:07;;;;;;;10.57;5.10;;;;;;;;;;5000510;28;20779;-87
2022/11/20 13:55:01;;;;;;;10.20;5.18;;;;;;;;;;5028321;28;20084;-88
2022/11/20 13:57:38;;;;;;;10.18;5.25;;;;;;;;;;5008871;28;20091;-87
2022/11/20 14:00:18;;;;;;;9.15;4.03;;;;;;;;;;5011995;28;20051;-89
2022/11/20 14:02:57;;;;;;;10.02;5.40;;;;;;;;;;5013820;28;20140;-86
2022/11/20 14:05:23;;;;;;;9.60;4.65;;;;;;;;;;4993039;28;20038;-88
2022/11/20 14:07:51;;;;;;;8.73;4.40;;;;;;;;;;5030641;28;20350;-86
2022/11/20 14:10:23;;;;;;;9.23;4.90;;;;;;;;;;5028186;28;20041;-88
2022/11/20 14:12:50;;;;;;;9.82;5.07;;;;;;;;;;5005741;28;20030;-88
2022/11/20 14:15:32;;;;;;;8.90;4.17;;;;;;;;;;4991780;28;20031;-84
2022/11/20 14:17:59;;;;;;;8.07;3.97;;;;;;;;;;5022462;28;20045;-88
2022/11/20 14:20:27;;;;;;;9.02;4.15;;;;;;;;;;4998463;28;20037;-88
2022/11/20 14:22:53;;;;;;;8.98;4.20;;;;;;;;;;5023648;28;20033;-89
2022/11/20 14:25:30;;;;;;;9.20;4.72;;;;;;;;;;5016282;28;20515;-88
2022/11/20 14:28:01;;;;;;;8.80;4.72;;;;;;;;;;5029201;28;20037;-87
2022/11/20 14:30:28;;;;;;;8.20;4.43;;;;;;;;;;5027173;28;20521;-86
2022/11/20 14:32:54;;;;;;;;;;;;;;;;;;5045110;28;20033;-87
2022/11/20 14:35:29;;;;;;;9.02;4.57;;;;;;;;;;5010496;28;19916;-87
2022/11/20 14:37:55;;;;;;;9.23;4.07;;;;;;;;;;5027106;28;20033;-86
2022/11/20 14:40:34;;;;;;;8.15;4.15;;;;;;;;;;5027080;28;20555;-86
2022/11/20 14:43:00;;;;;;;11.13;4.25;;;;;;;;;;5011916;28;20038;-87
2022/11/20 14:45:26;;;;;;;11.63;5.07;;;;;;;;;;5003242;28;20789;-85
2022/11/20 14:47:54;;;;;;;8.10;4.65;;;;;;;;;;4990992;28;20149;-88
2022/11/20 14:50:23;;;;;;;9.35;4.63;;;;;;;;;;5010873;28;20481;-87
2022/11/20 14:52:59;;;;;;;11.45;5.65;;;;;;;;;;5025842;28;20036;-87
2022/11/20 14:55:37;;;;;;;10.52;4.90;;;;;;;;;;5029280;28;20037;-88
2022/11/20 14:58:06;;;;;;;9.15;4.70;;;;;;;;;;5010420;28;20445;-87
2022/11/20 15:00:33;;;;;;;10.63;5.50;;;;;;;;;;5012369;28;20115;-87